Terminal Aerodrome Forecast
Issued by NWS Spokane, WA

Home | Current Version | Previous Version | Text Only | Print | Product List | Glossary On
Versions: 1 2 3 4 5 6 7 8 9 10 11 12 13 14 15 16 17 18 19 20 21 22 23 24 25
000
FTUS46 KOTX 042334
TAFGEG
TAF
KGEG 042334Z 0500/0524 22010G16KT P6SM FEW060 FEW200
     FM050100 28010G14KT P6SM FEW060 FEW200
     FM050500 34010G23KT P6SM FEW100
     FM050900 35005KT P6SM SCT100
     FM051400 02012G19KT P6SM FEW050 FEW100
     FM052000 02015KT P6SM FEW050=

USA.gov is the U.S. government's official web portal to all federal, state and local government web resources and services.